Terminal Aerodrome Forecast
Issued by NWS Lake Charles, LA

Home | Current Version | Previous Version | Text Only | Print | Product List | Glossary On
Versions: 1 2 3 4 5 6 7 8 9 10 11 12 13 14 15 16 17 18
184
FTUS44 KLCH 240929 AAA
TAFARA
TAF AMD
KARA 240929Z 2409/2506 VRB03KT P6SM SKC
      TEMPO 2410/2413 4SM BR
     FM241400 06006KT P6SM FEW035
     FM241900 07007KT P6SM VCTS SCT045CB
     FM250200 VRB03KT P6SM SCT250=

USA.gov is the U.S. government's official web portal to all federal, state and local government web resources and services.